createdAt,value
2019-02-17T00:03:17.874Z,64.30
2019-02-17T00:07:20.866Z,63.50
2019-02-17T00:11:24.879Z,66.20
2019-02-17T00:15:27.865Z,67.40
2019-02-17T00:19:30.862Z,67.70
2019-02-17T00:23:33.871Z,67.80
2019-02-17T00:27:36.855Z,67.30
2019-02-17T00:31:39.854Z,66.80
2019-02-17T00:35:42.847Z,66.60
2019-02-17T00:39:45.841Z,66.70
2019-02-17T00:43:48.838Z,65.30
2019-02-17T00:47:51.826Z,62.90
2019-02-17T00:51:55.067Z,62.60
2019-02-17T00:55:58.062Z,62.00
2019-02-17T01:00:05.789Z,62.40
2019-02-17T01:04:15.593Z,62.60
2019-02-17T01:08:18.594Z,63.30
2019-02-17T01:12:21.586Z,65.70
2019-02-17T01:16:25.077Z,66.90
2019-02-17T01:20:28.159Z,67.90
2019-02-17T01:24:31.142Z,69.00
2019-02-17T01:28:34.141Z,69.20
2019-02-17T01:32:37.130Z,69.30
2019-02-17T01:36:40.119Z,70.20
2019-02-17T01:40:43.115Z,70.60
2019-02-17T01:44:46.116Z,70.10
2019-02-17T01:48:49.122Z,70.00
2019-02-17T01:52:52.119Z,69.90
2019-02-17T01:56:55.103Z,70.60
2019-02-17T02:00:59.028Z,71.00
2019-02-17T02:05:02.123Z,70.10
2019-02-17T02:09:07.736Z,68.00
2019-02-17T02:13:10.723Z,66.90
2019-02-17T02:17:13.731Z,66.50
2019-02-17T02:21:16.718Z,65.60
2019-02-17T02:25:19.718Z,65.40
2019-02-17T02:29:22.710Z,65.90
2019-02-17T02:33:25.926Z,66.30
2019-02-17T02:37:28.916Z,65.10
2019-02-17T02:41:34.812Z,65.50
2019-02-17T02:45:37.062Z,64.50
2019-02-17T02:49:40.577Z,65.00
2019-02-17T02:53:43.614Z,65.40
2019-02-17T02:57:46.610Z,68.00
2019-02-17T03:01:51.546Z,69.30
2019-02-17T03:05:56.441Z,69.60
2019-02-17T03:09:59.435Z,67.90
2019-02-17T03:14:02.462Z,67.00
2019-02-17T03:18:05.441Z,66.60
2019-02-17T03:22:08.436Z,67.00
2019-02-17T03:26:11.444Z,66.30
2019-02-17T03:30:14.437Z,66.20
2019-02-17T03:34:17.441Z,65.60
2019-02-17T03:38:20.441Z,65.90
2019-02-17T03:42:23.431Z,64.60
2019-02-17T03:46:26.426Z,64.00
2019-02-17T03:50:29.414Z,63.50
2019-02-17T03:54:32.406Z,62.80
2019-02-17T03:58:35.411Z,62.70
2019-02-17T04:02:39.164Z,62.40
2019-02-17T04:06:42.168Z,63.00
2019-02-17T04:10:45.173Z,63.90
2019-02-17T04:14:48.168Z,63.80
2019-02-17T04:18:51.168Z,62.70
2019-02-17T04:22:54.156Z,63.30
2019-02-17T04:26:57.188Z,62.80
2019-02-17T04:31:00.169Z,63.30
2019-02-17T04:35:03.670Z,63.10
2019-02-17T04:39:06.652Z,65.00
2019-02-17T04:43:09.644Z,64.90
2019-02-17T04:47:12.640Z,66.00
2019-02-17T04:51:15.636Z,66.20
2019-02-17T04:55:18.636Z,64.50
2019-02-17T04:59:21.624Z,64.80
2019-02-17T05:03:25.493Z,63.80
2019-02-17T05:07:28.492Z,64.00
2019-02-17T05:11:31.495Z,64.50
2019-02-17T05:15:34.602Z,64.00
2019-02-17T05:19:37.597Z,62.90
2019-02-17T05:23:40.596Z,62.30
2019-02-17T05:27:43.593Z,62.80
2019-02-17T05:31:46.615Z,64.90
2019-02-17T05:35:49.582Z,63.50
2019-02-17T05:39:52.865Z,62.10
2019-02-17T05:43:55.858Z,61.10
2019-02-17T05:51:23.601Z,61.20
2019-02-17T05:55:26.624Z,61.50
2019-02-17T05:59:29.629Z,62.00
2019-02-17T06:03:32.641Z,63.10
2019-02-17T06:07:35.644Z,63.20
2019-02-17T06:11:38.976Z,63.30
2019-02-17T06:15:41.988Z,63.90
2019-02-17T06:19:45.002Z,62.80
2019-02-17T06:23:48.025Z,62.80
2019-02-17T06:27:51.049Z,63.10
2019-02-17T06:31:54.045Z,62.90
2019-02-17T06:35:57.067Z,62.30
2019-02-17T06:40:00.365Z,62.00
2019-02-17T06:44:03.631Z,62.50
2019-02-17T06:48:06.649Z,63.10
2019-02-17T06:52:10.901Z,63.50
2019-02-17T06:56:15.807Z,64.40
2019-02-17T07:00:23.501Z,64.80
2019-02-17T07:04:39.999Z,65.20
2019-02-17T07:08:43.079Z,63.60
2019-02-17T07:12:46.089Z,62.20
2019-02-17T07:16:49.124Z,61.80
2019-02-17T07:20:52.123Z,62.20
2019-02-17T07:24:55.184Z,61.90
2019-02-17T07:28:58.208Z,61.80
2019-02-17T07:33:01.230Z,61.20
2019-02-17T07:37:05.340Z,60.00
2019-02-17T07:41:08.660Z,58.40
2019-02-17T07:45:11.679Z,56.30
2019-02-17T07:49:14.685Z,55.40
2019-02-17T07:53:17.812Z,55.60
2019-02-17T07:57:20.828Z,54.20
2019-02-17T08:01:23.861Z,49.70
2019-02-17T08:05:26.890Z,47.80
2019-02-17T08:09:29.900Z,47.10
2019-02-17T08:13:33.031Z,46.50
2019-02-17T08:17:36.048Z,45.60
2019-02-17T08:21:39.077Z,45.00
2019-02-17T08:25:42.093Z,44.00
2019-02-17T08:29:45.111Z,43.90
2019-02-17T08:33:48.181Z,44.80
2019-02-17T08:37:51.220Z,44.50
2019-02-17T08:41:54.309Z,43.30
2019-02-17T08:45:57.333Z,41.50
2019-02-17T08:50:00.388Z,39.80
2019-02-17T08:54:04.806Z,38.50
2019-02-17T08:58:07.911Z,36.80
2019-02-17T09:02:10.944Z,35.30
2019-02-17T09:06:13.958Z,35.10
2019-02-17T09:10:16.964Z,35.20
2019-02-17T09:14:19.979Z,34.10
2019-02-17T09:18:23.001Z,34.80
2019-02-17T09:22:26.046Z,33.70
2019-02-17T09:26:29.729Z,33.20
2019-02-17T09:30:33.006Z,33.50
2019-02-17T09:34:36.018Z,34.10
2019-02-17T09:38:39.041Z,35.20
2019-02-17T09:42:42.056Z,36.40
2019-02-17T09:46:45.081Z,36.50
2019-02-17T09:50:48.141Z,38.40
2019-02-17T09:54:52.044Z,42.40
2019-02-17T09:58:55.180Z,42.60
2019-02-17T10:02:58.269Z,42.70
2019-02-17T10:07:01.355Z,42.60
2019-02-17T10:11:04.479Z,42.80
2019-02-17T10:15:11.766Z,44.30
2019-02-17T10:19:14.783Z,45.30
2019-02-17T10:23:17.792Z,43.90
2019-02-17T10:27:20.868Z,42.60
2019-02-17T10:31:23.880Z,41.50
2019-02-17T10:35:26.915Z,40.80
2019-02-17T10:39:29.991Z,41.70
2019-02-17T10:43:32.985Z,40.10
2019-02-17T10:47:36.250Z,41.10
2019-02-17T10:51:39.503Z,39.80
2019-02-17T10:55:43.425Z,40.60
2019-02-17T10:59:46.426Z,38.90
2019-02-17T11:04:01.775Z,39.50
2019-02-17T11:08:04.868Z,41.40
2019-02-17T11:12:07.960Z,40.20
2019-02-17T11:16:11.068Z,40.50
2019-02-17T11:20:14.091Z,40.10
2019-02-17T11:24:17.156Z,38.80
2019-02-17T11:28:20.208Z,38.70
2019-02-17T11:32:23.239Z,38.80
2019-02-17T11:36:26.262Z,37.80
2019-02-17T11:40:29.277Z,36.80
2019-02-17T11:44:33.380Z,36.40
2019-02-17T11:48:36.395Z,35.60
2019-02-17T11:52:39.412Z,35.20
2019-02-17T11:56:42.869Z,35.00
2019-02-17T12:00:45.921Z,34.40
2019-02-17T12:04:48.984Z,35.20
2019-02-17T12:08:52.097Z,35.00
2019-02-17T12:12:55.186Z,35.50
2019-02-17T12:16:58.204Z,36.50
2019-02-17T12:21:03.217Z,37.60
2019-02-17T12:25:06.279Z,37.00
2019-02-17T12:29:11.212Z,37.80
2019-02-17T12:33:19.311Z,38.20
2019-02-17T12:37:19.409Z,38.10
2019-02-17T12:41:22.414Z,38.60
2019-02-17T12:45:25.429Z,37.30
2019-02-17T12:49:29.585Z,37.60
2019-02-17T12:53:32.615Z,37.10
2019-02-17T12:57:37.329Z,38.90
2019-02-17T13:01:40.430Z,38.00
2019-02-17T13:05:43.492Z,38.80
2019-02-17T13:09:46.542Z,35.20
2019-02-17T13:13:49.573Z,32.90
2019-02-17T13:17:53.090Z,35.30
2019-02-17T13:21:56.208Z,34.90
2019-02-17T13:25:59.220Z,34.90
2019-02-17T13:30:05.056Z,34.20
2019-02-17T13:34:08.066Z,32.60
2019-02-17T13:38:11.087Z,33.40
2019-02-17T13:42:14.100Z,31.70
2019-02-17T13:46:18.133Z,31.50
2019-02-17T13:50:21.233Z,31.10
2019-02-17T13:54:24.324Z,32.00
2019-02-17T13:58:27.766Z,31.20
2019-02-17T14:02:30.837Z,30.70
2019-02-17T14:06:33.987Z,30.90
2019-02-17T14:10:37.032Z,31.10
2019-02-17T14:14:40.130Z,31.30
2019-02-17T14:18:43.264Z,30.00
2019-02-17T14:22:46.269Z,30.60
2019-02-17T14:26:49.320Z,30.70
2019-02-17T14:30:52.329Z,30.50
2019-02-17T14:34:55.466Z,30.60
2019-02-17T14:38:58.882Z,31.40
2019-02-17T14:43:01.981Z,31.00
2019-02-17T14:47:04.984Z,30.80
2019-02-17T14:51:07.992Z,31.00
2019-02-17T14:55:11.411Z,30.60
2019-02-17T14:59:15.752Z,31.00
2019-02-17T15:03:18.757Z,30.70
2019-02-17T15:07:21.778Z,31.00
2019-02-17T15:11:24.774Z,30.90
2019-02-17T15:15:27.841Z,30.80
2019-02-17T15:19:30.844Z,31.00
2019-02-17T15:23:33.847Z,31.50
2019-02-17T15:27:37.015Z,31.80
2019-02-17T15:31:40.082Z,31.70
2019-02-17T15:35:43.162Z,31.60
2019-02-17T15:39:46.356Z,31.30
2019-02-17T15:43:49.379Z,31.70
2019-02-17T15:47:52.729Z,31.80
2019-02-17T15:51:55.742Z,31.80
2019-02-17T15:55:58.756Z,32.10
2019-02-17T16:00:07.500Z,32.00
2019-02-17T16:04:10.501Z,32.80
2019-02-17T16:08:13.589Z,33.00
2019-02-17T16:12:16.589Z,32.60
2019-02-17T16:16:19.654Z,32.90
2019-02-17T16:20:22.659Z,33.60
2019-02-17T16:24:25.754Z,34.80
2019-02-17T16:28:28.781Z,35.60
2019-02-17T16:32:31.863Z,36.30
2019-02-17T16:36:34.931Z,36.50
2019-02-17T16:40:37.961Z,37.40
2019-02-17T16:44:41.121Z,38.80
2019-02-17T16:48:44.138Z,39.70
2019-02-17T16:52:47.405Z,40.80
2019-02-17T16:56:50.397Z,42.50
2019-02-17T17:00:55.931Z,42.70
2019-02-17T17:04:58.959Z,42.80
2019-02-17T17:09:03.374Z,43.40
2019-02-17T17:13:06.380Z,44.10
2019-02-17T17:17:09.416Z,44.20
2019-02-17T17:21:12.497Z,44.90
2019-02-17T17:25:15.605Z,45.50
2019-02-17T17:29:18.623Z,45.50
2019-02-17T17:33:21.633Z,45.70
2019-02-17T17:37:24.648Z,45.90
2019-02-17T17:41:27.672Z,46.20
2019-02-17T17:45:30.692Z,47.20
2019-02-17T17:49:33.698Z,47.20
2019-02-17T17:53:37.817Z,48.10
2019-02-17T17:57:40.858Z,48.50
2019-02-17T18:01:45.306Z,49.00
2019-02-17T18:05:48.369Z,49.40
2019-02-17T18:09:51.393Z,49.30
2019-02-17T18:13:54.434Z,50.00
2019-02-17T18:17:57.544Z,49.30
2019-02-17T18:22:00.553Z,49.50
2019-02-17T18:26:03.739Z,49.20
2019-02-17T18:30:13.004Z,49.50
2019-02-17T18:34:16.092Z,49.70
2019-02-17T18:38:19.127Z,50.10
2019-02-17T18:42:23.290Z,50.10
2019-02-17T18:46:27.356Z,50.40
2019-02-17T18:50:30.405Z,50.60
2019-02-17T18:54:34.810Z,51.60
2019-02-17T18:58:38.016Z,52.60
2019-02-17T19:02:43.512Z,53.10
2019-02-17T19:06:46.623Z,53.10
2019-02-17T19:10:53.574Z,53.00
2019-02-17T19:14:56.866Z,53.00
2019-02-17T19:19:00.029Z,53.40
2019-02-17T19:23:03.292Z,53.50
2019-02-17T19:27:06.302Z,54.00
2019-02-17T19:31:09.471Z,53.60
2019-02-17T19:35:13.773Z,53.50
2019-02-17T19:39:16.780Z,53.50
2019-02-17T19:43:19.795Z,53.60
2019-02-17T19:47:22.819Z,53.50
2019-02-17T19:51:25.840Z,54.80
2019-02-17T19:55:29.290Z,54.80
2019-02-17T19:59:32.410Z,55.20
2019-02-17T20:03:41.033Z,55.40
2019-02-17T20:07:44.082Z,56.40
2019-02-17T20:11:47.088Z,55.90
2019-02-17T20:15:50.223Z,56.00
2019-02-17T20:19:53.404Z,55.90
2019-02-17T20:23:56.436Z,55.40
2019-02-17T20:27:59.479Z,55.30
2019-02-17T20:32:02.468Z,54.90
2019-02-17T20:36:05.538Z,54.90
2019-02-17T20:40:10.531Z,55.00
2019-02-17T20:44:13.547Z,55.50
2019-02-17T20:48:16.546Z,55.40
2019-02-17T20:52:19.573Z,55.80
2019-02-17T20:56:22.579Z,55.90
2019-02-17T21:00:27.487Z,55.60
2019-02-17T21:04:31.999Z,55.40
2019-02-17T21:08:35.031Z,55.00
2019-02-17T21:12:39.072Z,55.30
2019-02-17T21:16:42.158Z,55.70
2019-02-17T21:20:47.212Z,56.30
2019-02-17T21:24:50.254Z,56.90
2019-02-17T21:28:53.304Z,58.30
2019-02-17T21:32:56.580Z,58.10
2019-02-17T21:36:59.580Z,57.90
2019-02-17T21:41:09.260Z,57.60
2019-02-17T21:45:10.382Z,57.70
2019-02-17T21:49:13.428Z,58.20
2019-02-17T21:53:20.286Z,58.10
2019-02-17T21:57:21.343Z,57.70
2019-02-17T22:01:24.335Z,58.60
2019-02-17T22:05:29.025Z,57.50
2019-02-17T22:09:32.126Z,57.00
2019-02-17T22:13:35.242Z,57.00
2019-02-17T22:17:38.254Z,57.40
2019-02-17T22:21:41.287Z,57.90
2019-02-17T22:25:44.382Z,58.00
2019-02-17T22:29:48.486Z,57.40
2019-02-17T22:33:54.517Z,57.30
2019-02-17T22:37:57.543Z,57.40
2019-02-17T22:42:00.539Z,57.30
2019-02-17T22:46:03.561Z,56.70
2019-02-17T22:50:08.846Z,56.40
2019-02-17T22:54:11.848Z,57.00
2019-02-17T22:58:14.869Z,57.00
2019-02-17T23:02:17.962Z,57.20
2019-02-17T23:06:22.138Z,56.80
2019-02-17T23:10:25.182Z,57.30
2019-02-17T23:14:28.198Z,56.80
2019-02-17T23:18:31.235Z,56.90
2019-02-17T23:22:34.204Z,56.80
2019-02-17T23:26:37.211Z,57.30
2019-02-17T23:30:40.204Z,56.90
2019-02-17T23:34:44.195Z,57.10
2019-02-17T23:38:47.182Z,57.00
2019-02-17T23:42:50.179Z,57.20
2019-02-17T23:46:53.169Z,56.50
2019-02-17T23:50:56.181Z,56.60
2019-02-17T23:54:59.171Z,56.70
2019-02-17T23:59:02.193Z,56.60
